Terminal Aerodrome Forecast
Issued by NWS Amarillo, TX

Home | Current Version | Previous Version | Text Only | Print | Product List | Glossary On
Versions: 1 2 3 4 5 6 7 8 9 10 11 12 13 14 15 16 17 18 19 20 21 22 23
000
FTUS44 KAMA 281700
TAFAMA
TAF
KAMA 281720Z 2818/2918 17015G25KT P6SM VCTS SCT015 BKN050CB
      TEMPO 2818/2822 4SM -TSRA BR BKN015CB
     FM282200 18017G25KT 5SM TSRA BR OVC030CB
     FM290400 17014KT P6SM SCT080 BKN200
     FM291000 25010KT P6SM SCT200
     FM291400 35012KT P6SM SCT120 SCT200=

USA.gov is the U.S. government's official web portal to all federal, state and local government web resources and services.